createdAt,value
2019-04-27T00:00:35.907Z,94.80
2019-04-27T00:03:14.764Z,77.32
2019-04-27T00:06:08.527Z,98.95
2019-04-27T00:08:48.651Z,92.90
2019-04-27T00:11:24.866Z,87.67
2019-04-27T00:13:56.076Z,89.97
2019-04-27T00:16:33.826Z,102.30
2019-04-27T00:19:23.235Z,101.92
2019-04-27T00:22:00.730Z,102.65
2019-04-27T00:24:31.781Z,83.10
2019-04-27T00:27:03.266Z,86.60
2019-04-27T00:29:33.937Z,83.00
2019-04-27T00:32:05.402Z,120.08
2019-04-27T00:34:36.769Z,96.70
2019-04-27T00:37:25.314Z,89.28
2019-04-27T00:40:06.787Z,97.95
2019-04-27T00:42:39.188Z,91.55
2019-04-27T00:45:13.546Z,87.83
2019-04-27T00:47:56.409Z,83.17
2019-04-27T00:50:17.290Z,85.57
2019-04-27T00:52:48.121Z,92.30
2019-04-27T00:55:19.268Z,97.50
2019-04-27T00:58:00.649Z,80.32
2019-04-27T01:00:39.677Z,86.60
2019-04-27T01:03:13.945Z,99.00
2019-04-27T01:05:44.728Z,104.20
2019-04-27T01:08:18.052Z,102.27
2019-04-27T01:10:48.548Z,89.92
2019-04-27T01:13:19.718Z,84.00
2019-04-27T01:15:54.151Z,119.00
2019-04-27T01:18:26.523Z,101.35
2019-04-27T01:20:59.086Z,102.78
2019-04-27T01:23:29.683Z,98.07
2019-04-27T01:26:18.748Z,101.20
2019-04-27T01:28:51.993Z,91.65
2019-04-27T01:31:24.711Z,98.52
2019-04-27T01:33:55.444Z,87.08
2019-04-27T01:36:26.508Z,83.92
2019-04-27T01:38:59.516Z,99.77
2019-04-27T01:41:32.253Z,86.20
2019-04-27T01:44:03.224Z,80.60
2019-04-27T01:46:33.854Z,84.60
2019-04-27T01:49:06.899Z,78.10
2019-04-27T01:51:39.154Z,82.02
2019-04-27T01:54:11.244Z,81.67
2019-04-27T01:56:42.995Z,74.45
2019-04-27T01:59:13.600Z,88.85
2019-04-27T02:02:02.692Z,80.00
2019-04-27T02:04:41.522Z,83.30
2019-04-27T02:07:12.370Z,75.60
2019-04-27T02:09:45.525Z,91.25
2019-04-27T02:12:19.255Z,90.28
2019-04-27T02:14:50.918Z,98.67
2019-04-27T02:17:21.278Z,96.17
2019-04-27T02:19:52.775Z,92.80
2019-04-27T02:22:23.804Z,97.90
2019-04-27T02:24:56.995Z,96.72
2019-04-27T02:27:31.930Z,94.47
2019-04-27T02:30:14.673Z,100.55
2019-04-27T02:32:50.498Z,96.72
2019-04-27T02:35:21.132Z,112.90
2019-04-27T02:37:51.964Z,99.17
2019-04-27T02:40:50.451Z,93.90
2019-04-27T02:43:23.423Z,93.45
2019-04-27T02:45:54.449Z,102.03
2019-04-27T02:48:26.023Z,111.22
2019-04-27T02:50:59.909Z,119.35
2019-04-27T02:53:49.808Z,109.22
2019-04-27T02:56:21.460Z,112.28
2019-04-27T02:58:53.165Z,107.10
2019-04-27T03:01:25.688Z,112.35
2019-04-27T03:04:00.325Z,127.97
2019-04-27T03:06:31.766Z,106.92
2019-04-27T03:09:02.469Z,110.70
2019-04-27T03:11:33.432Z,112.62
2019-04-27T03:14:34.873Z,105.63
2019-04-27T03:16:56.680Z,104.72
2019-04-27T03:19:39.870Z,125.90
2019-04-27T03:22:15.192Z,124.18
2019-04-27T03:25:05.868Z,120.45
2019-04-27T03:27:45.001Z,115.55
2019-04-27T03:30:22.445Z,121.62
2019-04-27T03:32:56.623Z,155.33
2019-04-27T03:35:24.788Z,138.20
2019-04-27T03:37:56.102Z,137.88
2019-04-27T03:40:30.476Z,137.92
2019-04-27T03:43:02.136Z,135.85
2019-04-27T03:45:34.771Z,138.68
2019-04-27T03:48:05.619Z,125.20
2019-04-27T03:50:39.794Z,132.37
2019-04-27T03:53:20.552Z,143.50
2019-04-27T03:56:12.514Z,157.25
2019-04-27T03:58:49.562Z,133.80
2019-04-27T04:01:22.786Z,159.00
2019-04-27T04:03:53.830Z,128.78
2019-04-27T04:06:24.731Z,115.67
2019-04-27T04:08:55.600Z,117.85
2019-04-27T04:11:31.488Z,135.55
2019-04-27T04:14:06.656Z,142.15
2019-04-27T04:16:42.131Z,125.20
2019-04-27T04:19:13.688Z,126.33
2019-04-27T04:21:44.790Z,122.90
2019-04-27T04:24:16.189Z,174.57
2019-04-27T04:26:50.004Z,113.30
2019-04-27T04:31:52.773Z,130.32
2019-04-27T04:34:24.120Z,124.15
2019-04-27T04:36:54.866Z,126.87
2019-04-27T04:39:29.690Z,114.80
2019-04-27T04:42:10.240Z,113.52
2019-04-27T04:44:50.019Z,114.30
2019-04-27T04:47:27.613Z,94.40
2019-04-27T04:50:08.560Z,107.72
2019-04-27T04:52:31.294Z,98.85
2019-04-27T04:55:02.621Z,96.60
2019-04-27T04:57:33.899Z,102.95
2019-04-27T05:00:09.693Z,94.95
2019-04-27T05:02:41.661Z,99.25
2019-04-27T05:05:12.382Z,81.67
2019-04-27T05:07:43.340Z,93.85
2019-04-27T05:10:18.829Z,94.62
2019-04-27T05:15:21.150Z,75.78
2019-04-27T05:17:52.158Z,84.35
2019-04-27T05:20:43.253Z,84.28
2019-04-27T05:23:14.288Z,65.55
2019-04-27T05:25:45.221Z,68.70
2019-04-27T05:28:18.741Z,57.15
2019-04-27T05:30:49.451Z,67.85
2019-04-27T05:33:21.341Z,70.47
2019-04-27T05:35:52.466Z,64.70
2019-04-27T05:38:24.931Z,68.17
2019-04-27T05:40:58.201Z,71.42
2019-04-27T05:43:33.559Z,76.50
2019-04-27T05:46:23.548Z,79.00
2019-04-27T05:48:54.992Z,101.33
2019-04-27T05:51:25.649Z,97.25
2019-04-27T05:53:58.724Z,81.87
2019-04-27T05:56:29.354Z,159.72
2019-04-27T05:59:00.992Z,104.97
2019-04-27T06:01:31.835Z,77.67
2019-04-27T06:04:02.356Z,72.53
2019-04-27T06:06:35.347Z,84.62
2019-04-27T06:09:09.426Z,71.65
2019-04-27T06:14:10.609Z,13.15
2019-04-27T06:16:43.622Z,14.47
2019-04-27T06:19:14.432Z,7.55
2019-04-27T06:21:45.683Z,11.50
2019-04-27T06:24:18.955Z,8.80
2019-04-27T06:26:49.987Z,10.77
2019-04-27T06:29:20.740Z,10.90
2019-04-27T06:31:51.679Z,11.55
2019-04-27T06:34:24.151Z,8.98
2019-04-27T06:36:54.750Z,13.95
2019-04-27T06:39:27.393Z,15.00
2019-04-27T06:41:59.047Z,10.68
2019-04-27T06:44:30.866Z,12.82
2019-04-27T06:47:01.632Z,13.38
2019-04-27T06:49:33.457Z,13.80
2019-04-27T06:52:06.329Z,12.18
2019-04-27T06:54:36.761Z,11.05
2019-04-27T06:57:09.209Z,10.55
2019-04-27T06:59:41.317Z,10.18
2019-04-27T07:02:13.879Z,12.95
2019-04-27T07:04:46.149Z,12.80
2019-04-27T07:07:19.382Z,14.10
2019-04-27T07:09:50.433Z,12.75
2019-04-27T07:12:22.161Z,13.72
2019-04-27T07:14:55.154Z,17.23
2019-04-27T07:17:28.833Z,11.57
2019-04-27T07:22:30.896Z,14.90
2019-04-27T07:25:02.250Z,16.15
2019-04-27T07:27:33.178Z,12.45
2019-04-27T07:30:06.164Z,11.75
2019-04-27T07:32:36.601Z,11.53
2019-04-27T07:35:09.827Z,12.60
2019-04-27T07:37:40.533Z,11.93
2019-04-27T07:40:13.940Z,18.82
2019-04-27T07:42:46.323Z,14.18
2019-04-27T07:45:19.564Z,9.63
2019-04-27T07:47:53.695Z,9.38
2019-04-27T07:50:26.158Z,12.80
2019-04-27T07:52:58.681Z,9.33
2019-04-27T07:55:31.545Z,11.20
2019-04-27T07:58:05.069Z,14.58
2019-04-27T08:00:35.647Z,11.95
2019-04-27T08:03:10.044Z,14.78
2019-04-27T08:05:40.795Z,12.60
2019-04-27T08:08:13.479Z,11.35
2019-04-27T08:10:44.177Z,14.10
2019-04-27T08:13:16.197Z,10.82
2019-04-27T08:15:49.470Z,12.73
2019-04-27T08:18:20.085Z,14.23
2019-04-27T08:20:51.369Z,11.22
2019-04-27T08:23:22.269Z,16.75
2019-04-27T08:25:54.235Z,15.53
2019-04-27T08:28:28.876Z,21.48
2019-04-27T08:31:08.797Z,17.50
2019-04-27T08:33:39.740Z,22.73
2019-04-27T08:36:12.187Z,21.90
2019-04-27T08:38:45.197Z,15.25
2019-04-27T08:41:16.245Z,12.47
2019-04-27T08:43:48.792Z,18.57
2019-04-27T08:46:19.656Z,18.27
2019-04-27T08:48:50.821Z,28.95
2019-04-27T08:51:21.455Z,20.05
2019-04-27T08:53:53.894Z,18.87
2019-04-27T08:56:24.678Z,17.20
2019-04-27T08:58:56.634Z,18.23
2019-04-27T09:01:27.420Z,18.32
2019-04-27T09:03:59.294Z,19.80
2019-04-27T09:06:31.202Z,24.63
2019-04-27T09:09:04.153Z,15.98
2019-04-27T09:11:37.129Z,17.75
2019-04-27T09:14:09.759Z,16.70
2019-04-27T09:17:02.974Z,15.10
2019-04-27T09:19:45.338Z,14.03
2019-04-27T09:22:16.918Z,20.20
2019-04-27T09:24:53.891Z,17.82
2019-04-27T09:27:26.052Z,24.40
2019-04-27T09:29:59.045Z,13.95
2019-04-27T09:32:30.793Z,22.62
2019-04-27T09:35:03.676Z,17.65
2019-04-27T09:37:36.497Z,16.67
2019-04-27T09:40:08.234Z,15.35
2019-04-27T09:42:40.053Z,17.87
2019-04-27T09:45:11.418Z,20.62
2019-04-27T09:47:42.048Z,16.25
2019-04-27T09:50:13.397Z,22.37
2019-04-27T09:52:45.937Z,17.98
2019-04-27T09:55:17.420Z,24.20
2019-04-27T09:57:48.457Z,23.38
2019-04-27T10:00:23.857Z,24.00
2019-04-27T10:02:56.103Z,17.00
2019-04-27T10:05:27.112Z,22.60
2019-04-27T10:07:58.048Z,13.70
2019-04-27T10:10:30.518Z,17.55
2019-04-27T10:13:04.114Z,24.52
2019-04-27T10:15:35.652Z,20.75
2019-04-27T10:18:07.666Z,19.42
2019-04-27T10:20:41.037Z,17.82
2019-04-27T10:23:12.575Z,16.10
2019-04-27T10:25:46.303Z,17.00
2019-04-27T10:28:18.142Z,21.23
2019-04-27T10:30:49.077Z,18.85
2019-04-27T10:33:20.630Z,17.73
2019-04-27T10:35:53.311Z,24.50
2019-04-27T10:38:26.514Z,16.30
2019-04-27T10:40:57.438Z,14.33
2019-04-27T10:43:27.961Z,20.45
2019-04-27T10:46:01.049Z,13.13
2019-04-27T10:48:33.120Z,21.10
2019-04-27T10:51:07.295Z,21.07
2019-04-27T10:53:39.594Z,19.57
2019-04-27T10:56:10.437Z,22.30
2019-04-27T10:58:41.368Z,20.32
2019-04-27T11:01:13.430Z,18.55
2019-04-27T11:04:02.598Z,19.77
2019-04-27T11:06:37.903Z,16.77
2019-04-27T11:09:11.414Z,14.53
2019-04-27T11:11:41.960Z,19.45
2019-04-27T11:14:12.800Z,19.60
2019-04-27T11:16:46.051Z,23.57
2019-04-27T11:19:17.020Z,22.25
2019-04-27T11:21:48.040Z,16.23
2019-04-27T11:24:19.108Z,19.75
2019-04-27T11:26:49.826Z,15.45
2019-04-27T11:29:21.195Z,30.25
2019-04-27T11:31:52.695Z,21.20
2019-04-27T11:34:46.993Z,17.87
2019-04-27T11:37:19.899Z,23.47
2019-04-27T11:39:52.349Z,19.65
2019-04-27T11:42:23.189Z,20.95
2019-04-27T11:44:57.954Z,22.50
2019-04-27T11:47:27.475Z,19.25
2019-04-27T11:49:58.586Z,22.95
2019-04-27T11:52:29.416Z,24.23
2019-04-27T11:55:00.361Z,22.42
2019-04-27T11:57:31.919Z,18.62
2019-04-27T12:00:05.202Z,18.70
2019-04-27T12:02:36.651Z,29.87
2019-04-27T12:05:10.443Z,20.68
2019-04-27T12:07:41.087Z,17.02
2019-04-27T12:10:12.537Z,19.65
2019-04-27T12:12:43.573Z,15.28
2019-04-27T12:15:16.148Z,14.75
2019-04-27T12:17:46.828Z,14.50
2019-04-27T12:20:19.148Z,11.88
2019-04-27T12:22:50.188Z,16.05
2019-04-27T12:25:21.124Z,21.40
2019-04-27T12:27:53.194Z,16.23
2019-04-27T12:30:28.611Z,21.07
2019-04-27T12:32:59.150Z,17.35
2019-04-27T12:35:32.464Z,17.90
2019-04-27T12:38:05.815Z,14.13
2019-04-27T12:40:36.697Z,12.73
2019-04-27T12:43:08.336Z,18.00
2019-04-27T12:45:42.015Z,18.57
2019-04-27T12:48:13.266Z,19.45
2019-04-27T12:50:43.918Z,22.55
2019-04-27T12:53:47.721Z,26.42
2019-04-27T12:56:07.494Z,19.00
2019-04-27T12:58:56.470Z,16.45
2019-04-27T13:01:29.021Z,19.27
2019-04-27T13:03:59.771Z,20.97
2019-04-27T13:06:30.606Z,13.28
2019-04-27T13:09:02.158Z,21.23
2019-04-27T13:11:32.693Z,16.17
2019-04-27T13:14:06.102Z,15.53
2019-04-27T13:16:36.816Z,12.95
2019-04-27T13:19:09.180Z,18.37
2019-04-27T13:21:40.164Z,26.83
2019-04-27T13:24:12.178Z,13.55
2019-04-27T13:26:43.117Z,15.88
2019-04-27T13:29:13.747Z,14.80
2019-04-27T13:31:45.570Z,18.12
2019-04-27T13:34:17.928Z,14.13
2019-04-27T13:36:48.606Z,14.20
2019-04-27T13:39:20.571Z,15.18
2019-04-27T13:41:51.510Z,11.50
2019-04-27T13:44:22.064Z,20.68
2019-04-27T13:47:11.295Z,15.68
2019-04-27T13:49:46.725Z,17.23
2019-04-27T13:52:19.216Z,12.45
2019-04-27T13:54:50.156Z,12.63
2019-04-27T13:57:21.622Z,11.75
2019-04-27T13:59:52.433Z,16.73
2019-04-27T14:02:24.268Z,13.83
2019-04-27T14:04:56.356Z,19.15
2019-04-27T14:07:27.949Z,11.15
2019-04-27T14:10:00.020Z,12.45
2019-04-27T14:12:30.912Z,12.85
2019-04-27T14:15:01.821Z,12.28
2019-04-27T14:17:33.308Z,14.58
2019-04-27T14:20:04.850Z,12.23
2019-04-27T14:22:35.484Z,13.70
2019-04-27T14:25:08.709Z,13.20
2019-04-27T14:27:40.833Z,11.05
2019-04-27T14:30:13.767Z,12.20
2019-04-27T14:32:44.627Z,11.57
2019-04-27T14:35:15.702Z,15.38
2019-04-27T14:37:48.433Z,17.98
2019-04-27T14:40:19.214Z,12.27
2019-04-27T14:42:52.117Z,12.20
2019-04-27T14:47:53.767Z,13.32
2019-04-27T14:50:24.294Z,14.18
2019-04-27T14:52:55.236Z,17.70
2019-04-27T14:55:26.166Z,14.93
2019-04-27T14:57:59.188Z,14.13
2019-04-27T15:00:30.709Z,18.25
2019-04-27T15:03:01.842Z,20.10
2019-04-27T15:05:33.191Z,17.82
2019-04-27T15:08:06.476Z,13.28
2019-04-27T15:10:36.400Z,15.72
2019-04-27T15:13:08.360Z,19.67
2019-04-27T15:15:40.127Z,14.60
2019-04-27T15:18:11.258Z,14.33
2019-04-27T15:20:46.298Z,18.95
2019-04-27T15:23:20.057Z,15.35
2019-04-27T15:25:52.386Z,13.23
2019-04-27T15:28:24.846Z,13.15
2019-04-27T15:30:57.434Z,14.05
2019-04-27T15:33:50.505Z,15.13
2019-04-27T15:36:37.182Z,16.15
2019-04-27T15:39:30.479Z,18.70
2019-04-27T15:42:08.140Z,19.75
2019-04-27T15:44:40.564Z,18.52
2019-04-27T15:47:11.958Z,18.77
2019-04-27T15:49:49.882Z,15.48
2019-04-27T15:52:15.058Z,19.57
2019-04-27T15:54:48.054Z,14.13
2019-04-27T15:57:20.886Z,19.40
2019-04-27T15:59:51.757Z,17.90
2019-04-27T16:02:22.802Z,16.23
2019-04-27T16:04:54.964Z,20.25
2019-04-27T16:07:29.777Z,18.57
2019-04-27T16:10:02.549Z,21.68
2019-04-27T16:12:34.681Z,18.77
2019-04-27T16:15:08.069Z,20.25
2019-04-27T16:17:43.999Z,25.92
2019-04-27T16:20:14.914Z,21.77
2019-04-27T16:22:48.765Z,24.85
2019-04-27T16:25:23.546Z,25.25
2019-04-27T16:27:54.367Z,22.98
2019-04-27T16:30:25.552Z,18.67
2019-04-27T16:32:58.371Z,24.52
2019-04-27T16:35:29.458Z,22.17
2019-04-27T16:38:20.571Z,28.02
2019-04-27T16:40:54.646Z,27.48
2019-04-27T16:43:30.050Z,25.70
2019-04-27T16:46:04.257Z,30.15
2019-04-27T16:48:36.297Z,32.28
2019-04-27T16:51:10.736Z,29.70
2019-04-27T16:53:42.165Z,24.12
2019-04-27T16:56:16.168Z,25.57
2019-04-27T16:58:51.070Z,27.97
2019-04-27T17:01:28.493Z,26.85
2019-04-27T17:03:59.530Z,32.78
2019-04-27T17:06:30.782Z,30.27
2019-04-27T17:09:06.986Z,28.62
2019-04-27T17:11:35.321Z,31.30
2019-04-27T17:14:08.301Z,39.83
2019-04-27T17:16:48.436Z,27.00
2019-04-27T17:19:35.755Z,33.60
2019-04-27T17:22:05.166Z,27.65
2019-04-27T17:24:43.784Z,25.43
2019-04-27T17:27:11.750Z,39.90
2019-04-27T17:29:42.371Z,29.75
2019-04-27T17:32:17.306Z,25.15
2019-04-27T17:34:48.807Z,27.17
2019-04-27T17:37:19.481Z,23.27
2019-04-27T17:39:53.487Z,24.47
2019-04-27T17:42:27.515Z,31.50
2019-04-27T17:44:59.109Z,28.90
2019-04-27T17:47:29.804Z,27.00
2019-04-27T17:50:01.577Z,29.82
2019-04-27T17:52:32.402Z,26.70
2019-04-27T17:55:05.083Z,27.10
2019-04-27T17:57:39.104Z,25.77
2019-04-27T18:00:11.294Z,30.92
2019-04-27T18:02:44.476Z,27.95
2019-04-27T18:05:17.876Z,28.00
2019-04-27T18:07:50.492Z,29.85
2019-04-27T18:10:24.247Z,23.43
2019-04-27T18:12:54.336Z,28.77
2019-04-27T18:15:25.904Z,19.67
2019-04-27T18:17:58.511Z,25.08
2019-04-27T18:20:29.719Z,23.35
2019-04-27T18:23:02.811Z,23.65
2019-04-27T18:25:35.589Z,28.77
2019-04-27T18:28:16.020Z,21.87
2019-04-27T18:30:49.120Z,36.45
2019-04-27T18:33:20.231Z,28.15
2019-04-27T18:35:51.409Z,25.00
2019-04-27T18:38:22.114Z,22.85
2019-04-27T18:40:53.188Z,21.12
2019-04-27T18:43:28.488Z,19.73
2019-04-27T18:46:01.411Z,23.90
2019-04-27T18:48:33.877Z,24.23
2019-04-27T18:51:06.432Z,24.15
2019-04-27T18:53:37.291Z,22.25
2019-04-27T18:56:10.491Z,21.48
2019-04-27T18:58:41.217Z,20.62
2019-04-27T19:01:15.392Z,26.60
2019-04-27T19:03:49.536Z,27.87
2019-04-27T19:06:23.030Z,21.82
2019-04-27T19:08:53.668Z,28.65
2019-04-27T19:11:24.602Z,26.07
2019-04-27T19:13:55.951Z,24.63
2019-04-27T19:16:26.798Z,20.80
2019-04-27T19:18:58.396Z,24.45
2019-04-27T19:21:31.664Z,31.85
2019-04-27T19:24:02.561Z,19.42
2019-04-27T19:26:38.362Z,21.90
2019-04-27T19:29:18.777Z,27.40
2019-04-27T19:31:51.869Z,21.17
2019-04-27T19:34:28.680Z,21.05
2019-04-27T19:36:59.387Z,25.95
2019-04-27T19:39:32.237Z,21.55
2019-04-27T19:42:03.909Z,24.92
2019-04-27T19:44:35.178Z,20.82
2019-04-27T19:47:06.597Z,20.00
2019-04-27T19:49:38.840Z,21.12
2019-04-27T19:52:10.271Z,20.57
2019-04-27T19:54:42.393Z,22.35
2019-04-27T19:57:13.343Z,22.60
2019-04-27T19:59:46.134Z,24.43
2019-04-27T20:02:20.324Z,18.12
2019-04-27T20:04:53.914Z,18.35
2019-04-27T20:07:25.876Z,19.97
2019-04-27T20:10:00.397Z,23.40
2019-04-27T20:12:33.163Z,22.82
2019-04-27T20:15:07.146Z,21.95
2019-04-27T20:17:40.889Z,22.58
2019-04-27T20:22:42.791Z,18.20
2019-04-27T20:25:14.611Z,21.02
2019-04-27T20:27:48.992Z,21.35
2019-04-27T20:30:18.376Z,21.85
2019-04-27T20:32:51.045Z,32.33
2019-04-27T20:35:22.578Z,19.32
2019-04-27T20:37:53.157Z,22.55
2019-04-27T20:40:24.960Z,21.45
2019-04-27T20:42:55.992Z,24.60
2019-04-27T20:45:26.942Z,19.15
2019-04-27T20:47:57.840Z,24.52
2019-04-27T20:50:30.859Z,18.98
2019-04-27T20:53:03.827Z,23.45
2019-04-27T20:55:35.187Z,22.55
2019-04-27T20:58:05.814Z,26.97
2019-04-27T21:00:36.753Z,23.22
2019-04-27T21:03:09.171Z,28.35
2019-04-27T21:05:51.088Z,25.27
2019-04-27T21:08:26.048Z,20.32
2019-04-27T21:10:56.998Z,22.35
2019-04-27T21:13:31.295Z,21.73
2019-04-27T21:16:02.350Z,21.10
2019-04-27T21:18:33.282Z,22.82
2019-04-27T21:21:04.219Z,21.48
2019-04-27T21:23:34.715Z,23.83
2019-04-27T21:26:06.301Z,22.00
2019-04-27T21:28:37.743Z,21.15
2019-04-27T21:31:12.475Z,25.37
2019-04-27T21:33:42.887Z,20.45
2019-04-27T21:36:14.853Z,20.30
2019-04-27T21:38:45.805Z,22.98
2019-04-27T21:41:17.017Z,20.97
2019-04-27T21:43:51.200Z,23.07
2019-04-27T21:46:22.872Z,21.95
2019-04-27T21:48:53.744Z,24.50
2019-04-27T21:51:25.130Z,26.52
2019-04-27T21:54:00.877Z,21.10
2019-04-27T21:56:33.521Z,21.02
2019-04-27T21:59:05.733Z,27.00
2019-04-27T22:01:37.551Z,24.10
2019-04-27T22:04:11.429Z,21.35
2019-04-27T22:06:42.197Z,22.77
2019-04-27T22:09:15.481Z,27.00
2019-04-27T22:11:47.646Z,21.93
2019-04-27T22:14:19.017Z,24.37
2019-04-27T22:16:51.884Z,25.40
2019-04-27T22:19:23.040Z,24.87
2019-04-27T22:21:54.665Z,21.65
2019-04-27T22:24:26.831Z,28.15
2019-04-27T22:26:57.732Z,20.88
2019-04-27T22:29:32.182Z,20.03
2019-04-27T22:32:02.727Z,22.85
2019-04-27T22:34:35.805Z,25.70
2019-04-27T22:37:06.948Z,20.97
2019-04-27T22:39:44.613Z,25.13
2019-04-27T22:42:20.716Z,21.75
2019-04-27T22:44:56.354Z,18.45
2019-04-27T22:47:27.286Z,24.70
2019-04-27T22:49:58.428Z,19.62
2019-04-27T22:52:30.753Z,18.48
2019-04-27T22:55:02.254Z,22.25
2019-04-27T22:57:35.233Z,22.80
2019-04-27T23:00:09.281Z,20.32
2019-04-27T23:02:41.717Z,22.07
2019-04-27T23:05:14.394Z,20.50
2019-04-27T23:07:45.643Z,19.83
2019-04-27T23:10:16.180Z,20.52
2019-04-27T23:12:47.203Z,19.65
2019-04-27T23:15:20.918Z,15.65
2019-04-27T23:17:55.426Z,19.37
2019-04-27T23:20:26.160Z,21.00
2019-04-27T23:22:57.508Z,24.37
2019-04-27T23:25:29.677Z,18.42
2019-04-27T23:28:00.924Z,16.50
2019-04-27T23:30:33.492Z,16.90
2019-04-27T23:33:05.442Z,17.05
2019-04-27T23:35:36.729Z,14.15
2019-04-27T23:38:17.527Z,17.32
2019-04-27T23:40:41.935Z,18.75
2019-04-27T23:43:13.094Z,16.25
2019-04-27T23:45:43.857Z,17.92
2019-04-27T23:48:14.987Z,15.78
2019-04-27T23:50:47.545Z,15.78
2019-04-27T23:53:21.887Z,17.80
2019-04-27T23:55:52.483Z,18.92
2019-04-27T23:58:23.430Z,17.48
